createdAt,value
2023-04-02T00:00:58.932Z,5.35
2023-04-02T00:03:26.272Z,5.93
2023-04-02T00:05:55.192Z,6.50
2023-04-02T00:08:48.910Z,6.53
2023-04-02T00:11:35.242Z,6.88
2023-04-02T00:14:04.847Z,7.35
2023-04-02T00:16:32.456Z,6.80
2023-04-02T00:19:06.250Z,7.85
2023-04-02T00:21:37.267Z,6.28
2023-04-02T00:24:15.587Z,7.88
2023-04-02T00:26:48.493Z,6.90
2023-04-02T00:29:17.236Z,6.05
2023-04-02T00:32:02.563Z,7.65
2023-04-02T00:34:33.801Z,7.88
2023-04-02T00:37:01.891Z,7.93
2023-04-02T00:39:31.679Z,8.15
2023-04-02T00:42:05.652Z,8.77
2023-04-02T00:44:39.003Z,7.70
2023-04-02T00:47:26.922Z,7.78
2023-04-02T00:50:21.957Z,8.02
2023-04-02T00:52:52.208Z,6.15
2023-04-02T00:55:32.795Z,7.00
2023-04-02T00:58:01.295Z,5.80
2023-04-02T01:00:34.718Z,6.38
2023-04-02T01:03:34.700Z,5.47
2023-04-02T01:06:24.025Z,6.13
2023-04-02T01:09:21.760Z,5.40
2023-04-02T01:12:22.392Z,4.60
2023-04-02T01:14:56.119Z,5.40
2023-04-02T01:17:48.978Z,5.88
2023-04-02T01:21:01.869Z,5.35
2023-04-02T01:23:37.993Z,6.10
2023-04-02T01:26:15.846Z,4.78
2023-04-02T01:28:54.429Z,4.75
2023-04-02T01:31:23.672Z,5.20
2023-04-02T01:33:51.192Z,5.82
2023-04-02T01:36:29.866Z,4.93
2023-04-02T01:39:35.837Z,5.35
2023-04-02T01:42:23.513Z,5.20
2023-04-02T01:44:53.175Z,5.18
2023-04-02T01:47:27.278Z,5.50
2023-04-02T01:50:20.372Z,3.95
2023-04-02T01:52:52.426Z,4.22
2023-04-02T01:55:29.269Z,4.55
2023-04-02T01:57:57.668Z,4.30
2023-04-02T02:00:25.726Z,5.70
2023-04-02T02:02:56.055Z,3.83
2023-04-02T02:05:24.171Z,5.30
2023-04-02T02:07:56.401Z,5.93
2023-04-02T02:10:33.460Z,5.32
2023-04-02T02:13:01.299Z,5.95
2023-04-02T02:15:29.160Z,8.15
2023-04-02T02:18:01.006Z,5.75
2023-04-02T02:20:29.168Z,5.85
2023-04-02T02:22:57.768Z,6.60
2023-04-02T02:25:28.588Z,6.47
2023-04-02T02:28:17.140Z,6.00
2023-04-02T02:30:46.518Z,6.78
2023-04-02T02:33:18.023Z,8.27
2023-04-02T02:36:01.133Z,6.75
2023-04-02T02:38:55.740Z,6.10
2023-04-02T02:41:31.159Z,6.70
2023-04-02T02:44:04.843Z,7.32
2023-04-02T02:46:34.233Z,7.15
2023-04-02T02:49:04.532Z,5.72
2023-04-02T02:51:55.987Z,7.15
2023-04-02T02:54:32.253Z,5.57
2023-04-02T02:57:03.909Z,5.60
2023-04-02T02:59:32.228Z,5.47
2023-04-02T03:02:02.601Z,6.20
2023-04-02T03:04:30.746Z,6.28
2023-04-02T03:06:59.263Z,6.85
2023-04-02T03:09:52.318Z,7.15
2023-04-02T03:12:38.756Z,7.85
2023-04-02T03:15:30.778Z,6.50
2023-04-02T03:18:21.269Z,6.78
2023-04-02T03:21:06.902Z,5.47
2023-04-02T03:23:40.625Z,6.63
2023-04-02T03:26:16.601Z,6.07
2023-04-02T03:28:48.151Z,5.40
2023-04-02T03:31:28.054Z,8.30
2023-04-02T03:33:59.865Z,7.10
2023-04-02T03:36:43.689Z,6.55
2023-04-02T03:39:22.997Z,5.72
2023-04-02T03:42:00.442Z,7.03
2023-04-02T03:45:00.064Z,6.72
2023-04-02T03:47:38.819Z,5.72
2023-04-02T03:50:23.927Z,7.15
2023-04-02T03:52:54.099Z,7.53
2023-04-02T03:55:47.679Z,6.55
2023-04-02T03:58:32.109Z,8.57
2023-04-02T04:01:26.296Z,7.90
2023-04-02T04:04:03.343Z,7.97
2023-04-02T04:06:33.548Z,7.85
2023-04-02T04:09:18.697Z,7.90
2023-04-02T04:11:52.374Z,9.02
2023-04-02T04:14:20.904Z,7.95
2023-04-02T04:17:05.903Z,8.32
2023-04-02T04:20:17.753Z,7.90
2023-04-02T04:22:44.822Z,8.82
2023-04-02T04:25:30.150Z,8.00
2023-04-02T04:28:16.485Z,7.15
2023-04-02T04:30:53.245Z,7.90
2023-04-02T04:33:26.331Z,8.52
2023-04-02T04:36:01.794Z,8.45
2023-04-02T04:38:39.163Z,10.23
2023-04-02T04:41:21.399Z,8.52
2023-04-02T04:44:27.928Z,8.20
2023-04-02T04:47:18.831Z,7.78
2023-04-02T04:49:56.950Z,9.98
2023-04-02T04:52:33.820Z,6.97
2023-04-02T04:55:01.255Z,8.20
2023-04-02T04:57:37.414Z,8.35
2023-04-02T05:00:33.133Z,8.27
2023-04-02T05:03:09.289Z,8.43
2023-04-02T05:05:39.531Z,9.38
2023-04-02T05:08:22.746Z,7.93
2023-04-02T05:10:55.169Z,9.45
2023-04-02T05:13:39.277Z,8.50
2023-04-02T05:16:40.828Z,9.15
2023-04-02T05:19:19.618Z,9.73
2023-04-02T05:21:55.735Z,9.95
2023-04-02T05:24:48.832Z,11.57
2023-04-02T05:27:21.090Z,9.90
2023-04-02T05:29:59.030Z,10.38
2023-04-02T05:32:34.763Z,10.07
2023-04-02T05:35:06.629Z,11.85
2023-04-02T05:37:39.964Z,10.88
2023-04-02T05:40:26.475Z,10.20
2023-04-02T05:42:55.741Z,11.95
2023-04-02T05:45:34.836Z,11.48
2023-04-02T05:48:14.717Z,11.10
2023-04-02T05:50:54.476Z,10.57
2023-04-02T05:53:48.852Z,8.30
2023-04-02T05:56:31.437Z,8.00
2023-04-02T05:59:04.794Z,8.15
2023-04-02T06:01:47.350Z,7.70
2023-04-02T06:04:44.253Z,7.93
2023-04-02T06:07:21.772Z,8.40
2023-04-02T06:10:07.372Z,8.77
2023-04-02T06:12:49.553Z,8.80
2023-04-02T06:15:21.825Z,8.30
2023-04-02T06:17:52.252Z,8.73
2023-04-02T06:20:21.293Z,9.68
2023-04-02T06:23:02.898Z,8.88
2023-04-02T06:25:36.599Z,10.18
2023-04-02T06:28:14.336Z,9.88
2023-04-02T06:30:53.069Z,9.32
2023-04-02T06:33:21.477Z,8.48
2023-04-02T06:35:51.824Z,10.02
2023-04-02T06:38:31.368Z,9.75
2023-04-02T06:41:02.999Z,10.10
2023-04-02T06:44:07.350Z,10.40
2023-04-02T06:46:58.386Z,9.43
2023-04-02T06:49:42.879Z,10.55
2023-04-02T06:52:21.112Z,9.48
2023-04-02T06:54:48.770Z,9.50
2023-04-02T06:57:17.173Z,9.80
2023-04-02T06:59:46.842Z,10.02
2023-04-02T07:02:37.535Z,9.73
2023-04-02T07:05:09.356Z,9.35
2023-04-02T07:07:39.682Z,10.18
2023-04-02T07:10:10.322Z,8.90
2023-04-02T07:12:37.345Z,9.27
2023-04-02T07:15:05.401Z,9.32
2023-04-02T07:17:32.564Z,9.95
2023-04-02T07:19:59.754Z,9.98
2023-04-02T07:22:26.971Z,10.13
2023-04-02T07:24:59.715Z,10.60
2023-04-02T07:27:26.660Z,10.82
2023-04-02T07:29:53.635Z,9.00
2023-04-02T07:32:20.827Z,10.90
2023-04-02T07:34:48.940Z,11.68
2023-04-02T07:37:16.504Z,11.07
2023-04-02T07:39:43.482Z,10.52
2023-04-02T07:42:10.714Z,10.65
2023-04-02T07:44:37.903Z,10.18
2023-04-02T07:47:04.929Z,9.77
2023-04-02T07:49:31.887Z,9.77
2023-04-02T07:51:58.986Z,9.60
2023-04-02T07:54:27.233Z,9.38
2023-04-02T07:56:54.218Z,9.30
2023-04-02T07:59:21.332Z,9.40
2023-04-02T08:01:48.361Z,8.45
2023-04-02T08:04:23.013Z,8.32
2023-04-02T08:06:50.543Z,7.32
2023-04-02T08:09:17.638Z,7.50
2023-04-02T08:11:46.411Z,7.68
2023-04-02T08:14:13.547Z,7.97
2023-04-02T08:16:44.444Z,7.13
2023-04-02T08:19:11.513Z,7.80
2023-04-02T08:21:38.407Z,7.90
2023-04-02T08:24:05.558Z,7.28
2023-04-02T08:26:33.044Z,8.15
2023-04-02T08:29:00.299Z,8.38
2023-04-02T08:31:27.596Z,8.27
2023-04-02T08:33:56.804Z,7.03
2023-04-02T08:36:34.242Z,9.18
2023-04-02T08:39:02.060Z,8.77
2023-04-02T08:41:31.057Z,8.25
2023-04-02T08:44:27.405Z,8.30
2023-04-02T08:47:03.126Z,9.10
2023-04-02T08:49:36.417Z,9.88
2023-04-02T08:52:04.073Z,9.85
2023-04-02T08:54:38.102Z,9.77
2023-04-02T08:57:15.769Z,10.57
2023-04-02T08:59:44.443Z,9.82
2023-04-02T09:02:35.776Z,9.95
2023-04-02T09:05:06.917Z,10.23
2023-04-02T09:07:34.749Z,9.93
2023-04-02T09:10:02.053Z,10.90
2023-04-02T09:12:32.744Z,10.68
2023-04-02T09:15:11.211Z,11.38
2023-04-02T09:17:53.056Z,12.43
2023-04-02T09:20:26.718Z,13.82
2023-04-02T09:22:54.712Z,12.30
2023-04-02T09:25:27.166Z,12.27
2023-04-02T09:27:57.190Z,13.65
2023-04-02T09:30:33.016Z,12.55
2023-04-02T09:33:02.830Z,12.07
2023-04-02T09:35:32.566Z,12.63
2023-04-02T09:38:22.305Z,12.82
2023-04-02T09:40:57.016Z,13.13
2023-04-02T09:43:32.579Z,12.57
2023-04-02T09:46:18.814Z,12.50
2023-04-02T09:48:58.101Z,11.27
2023-04-02T09:51:31.815Z,13.10
2023-04-02T09:54:14.219Z,12.98
2023-04-02T09:57:21.168Z,12.32
2023-04-02T09:59:48.286Z,12.95
2023-04-02T10:02:28.500Z,12.50
2023-04-02T10:04:56.119Z,11.43
2023-04-02T10:07:41.451Z,12.43
2023-04-02T10:10:19.873Z,11.77
2023-04-02T10:12:53.965Z,10.40
2023-04-02T10:15:26.316Z,10.63
2023-04-02T10:18:12.710Z,10.57
2023-04-02T10:20:50.970Z,9.57
2023-04-02T10:23:19.499Z,9.05
2023-04-02T10:26:16.057Z,9.15
2023-04-02T10:29:10.562Z,8.43
2023-04-02T10:31:56.896Z,7.85
2023-04-02T10:34:46.547Z,7.75
2023-04-02T10:37:50.200Z,7.97
2023-04-02T10:40:42.614Z,8.98
2023-04-02T10:43:46.613Z,7.90
2023-04-02T10:46:25.730Z,6.93
2023-04-02T10:49:15.548Z,6.65
2023-04-02T10:52:00.758Z,7.63
2023-04-02T10:54:41.709Z,6.65
2023-04-02T10:57:35.234Z,6.85
2023-04-02T11:00:09.879Z,7.20
2023-04-02T11:03:15.518Z,6.22
2023-04-02T11:05:49.721Z,5.63
2023-04-02T11:08:24.163Z,5.35
2023-04-02T11:11:07.889Z,5.05
2023-04-02T11:14:14.731Z,5.57
2023-04-02T11:16:44.670Z,4.82
2023-04-02T11:19:15.066Z,4.75
2023-04-02T11:22:06.528Z,4.80
2023-04-02T11:24:43.494Z,5.43
2023-04-02T11:27:10.531Z,4.30
2023-04-02T11:29:45.373Z,5.03
2023-04-02T11:32:22.233Z,4.68
2023-04-02T11:35:02.914Z,5.03
2023-04-02T11:37:37.013Z,4.68
2023-04-02T11:40:33.099Z,4.13
2023-04-02T11:43:35.585Z,3.88
2023-04-02T11:46:23.844Z,4.35
2023-04-02T11:48:51.026Z,4.05
2023-04-02T11:51:21.445Z,4.28
2023-04-02T11:53:51.734Z,3.90
2023-04-02T11:56:43.315Z,4.43
2023-04-02T11:59:21.727Z,4.15
2023-04-02T12:02:06.765Z,4.15
2023-04-02T12:04:57.619Z,4.20
2023-04-02T12:07:36.415Z,4.18
2023-04-02T12:10:16.209Z,4.60
2023-04-02T12:12:43.778Z,3.90
2023-04-02T12:15:33.941Z,4.05
2023-04-02T12:18:25.137Z,3.85
2023-04-02T12:20:57.625Z,3.63
2023-04-02T12:23:31.354Z,3.83
2023-04-02T12:26:06.943Z,3.88
2023-04-02T12:28:34.643Z,3.30
2023-04-02T12:31:11.498Z,4.00
2023-04-02T12:33:40.646Z,4.05
2023-04-02T12:36:21.490Z,3.40
2023-04-02T12:38:57.400Z,3.80
2023-04-02T12:41:31.247Z,3.30
2023-04-02T12:44:05.197Z,3.70
2023-04-02T12:46:34.870Z,3.58
2023-04-02T12:49:16.140Z,3.40
2023-04-02T12:51:43.464Z,4.03
2023-04-02T12:54:16.186Z,3.50
2023-04-02T12:56:43.740Z,3.35
2023-04-02T12:59:43.514Z,2.88
2023-04-02T13:02:25.364Z,3.60
2023-04-02T13:05:00.839Z,3.72
2023-04-02T13:07:31.062Z,3.53
2023-04-02T13:10:19.892Z,3.30
2023-04-02T13:12:46.835Z,3.00
2023-04-02T13:15:31.612Z,3.22
2023-04-02T13:18:19.091Z,3.40
2023-04-02T13:21:01.236Z,3.15
2023-04-02T13:23:32.698Z,3.03
2023-04-02T13:26:13.063Z,3.17
2023-04-02T13:28:41.745Z,2.70
2023-04-02T13:31:16.856Z,2.90
2023-04-02T13:33:43.817Z,3.40
2023-04-02T13:36:14.623Z,3.03
2023-04-02T13:38:41.710Z,2.95
2023-04-02T13:41:31.084Z,3.08
2023-04-02T13:44:00.401Z,3.22
2023-04-02T13:46:30.729Z,2.90
2023-04-02T13:48:58.455Z,2.90
2023-04-02T13:51:46.492Z,3.25
2023-04-02T13:54:45.534Z,3.00
2023-04-02T13:57:12.861Z,2.88
2023-04-02T13:59:39.959Z,2.55
2023-04-02T14:02:12.859Z,2.60
2023-04-02T14:04:51.033Z,2.30
2023-04-02T14:07:45.958Z,2.35
2023-04-02T14:10:43.644Z,3.45
2023-04-02T14:13:38.391Z,2.78
2023-04-02T14:16:17.251Z,3.38
2023-04-02T14:19:00.714Z,3.25
2023-04-02T14:21:42.916Z,2.53
2023-04-02T14:24:24.836Z,3.00
2023-04-02T14:27:23.268Z,2.80
2023-04-02T14:29:56.234Z,2.90
2023-04-02T14:32:28.849Z,3.20
2023-04-02T14:35:13.212Z,2.45
2023-04-02T14:37:45.323Z,3.17
2023-04-02T14:40:39.868Z,3.08
2023-04-02T14:43:27.622Z,2.60
2023-04-02T14:46:01.253Z,2.88
2023-04-02T14:49:05.076Z,3.20
2023-04-02T14:51:41.805Z,2.28
2023-04-02T14:54:32.532Z,2.63
2023-04-02T14:57:26.556Z,3.15
2023-04-02T15:00:05.799Z,3.13
2023-04-02T15:02:54.190Z,2.92
2023-04-02T15:05:46.886Z,2.80
2023-04-02T15:08:22.623Z,3.45
2023-04-02T15:10:49.481Z,3.22
2023-04-02T15:13:21.319Z,2.80
2023-04-02T15:16:16.396Z,2.85
2023-04-02T15:18:43.463Z,2.60
2023-04-02T15:21:19.361Z,2.72
2023-04-02T15:24:09.538Z,3.58
2023-04-02T15:26:46.352Z,2.42
2023-04-02T15:29:34.326Z,3.20
2023-04-02T15:32:12.259Z,4.43
2023-04-02T15:34:50.357Z,3.70
2023-04-02T15:37:21.881Z,3.88
2023-04-02T15:40:15.706Z,3.53
2023-04-02T15:43:03.082Z,3.53
2023-04-02T15:45:41.466Z,3.20
2023-04-02T15:48:30.723Z,4.45
2023-04-02T15:51:03.757Z,3.28
2023-04-02T15:54:10.237Z,3.97
2023-04-02T15:57:01.774Z,3.80
2023-04-02T15:59:43.782Z,4.05
2023-04-02T16:02:29.616Z,4.05
2023-04-02T16:05:21.704Z,3.65
2023-04-02T16:07:57.044Z,3.50
2023-04-02T16:10:42.361Z,3.42
2023-04-02T16:13:34.800Z,3.42
2023-04-02T16:16:19.649Z,4.35
2023-04-02T16:19:04.935Z,3.25
2023-04-02T16:21:55.276Z,3.42
2023-04-02T16:24:23.523Z,3.00
2023-04-02T16:27:31.743Z,2.72
2023-04-02T16:30:01.467Z,3.00
2023-04-02T16:32:52.798Z,2.67
2023-04-02T16:38:24.261Z,2.95
2023-04-02T16:41:16.678Z,3.00
2023-04-02T16:43:55.040Z,2.45
2023-04-02T16:46:50.743Z,2.15
2023-04-02T16:49:27.014Z,2.53
2023-04-02T16:52:12.576Z,4.57
2023-04-02T16:55:11.530Z,2.40
2023-04-02T16:57:48.802Z,2.20
2023-04-02T17:00:47.105Z,2.25
2023-04-02T17:03:32.897Z,1.77
2023-04-02T17:06:12.865Z,2.47
2023-04-02T17:08:44.615Z,2.08
2023-04-02T17:11:26.763Z,1.92
2023-04-02T17:14:13.326Z,2.10
2023-04-02T17:16:45.870Z,2.03
2023-04-02T17:19:15.628Z,2.17
2023-04-02T17:21:47.068Z,2.20
2023-04-02T17:24:17.110Z,2.40
2023-04-02T17:26:47.822Z,1.92
2023-04-02T17:29:27.232Z,2.40
2023-04-02T17:32:01.429Z,1.80
2023-04-02T17:34:29.330Z,2.10
2023-04-02T17:37:07.352Z,1.95
2023-04-02T17:39:47.197Z,2.53
2023-04-02T17:42:24.748Z,2.20
2023-04-02T17:45:10.521Z,2.05
2023-04-02T17:47:53.680Z,2.55
2023-04-02T17:50:44.114Z,2.90
2023-04-02T17:53:29.345Z,2.65
2023-04-02T17:56:17.408Z,2.90
2023-04-02T17:59:02.864Z,3.10
2023-04-02T18:01:41.399Z,3.03
2023-04-02T18:04:37.283Z,2.88
2023-04-02T18:07:29.388Z,3.47
2023-04-02T18:09:56.308Z,3.78
2023-04-02T18:13:01.875Z,3.38
2023-04-02T18:15:47.600Z,3.63
2023-04-02T18:18:36.159Z,3.78
2023-04-02T18:21:18.281Z,4.10
2023-04-02T18:24:08.477Z,3.60
2023-04-02T18:26:35.426Z,3.80
2023-04-02T18:29:08.408Z,3.72
2023-04-02T18:31:47.883Z,4.18
2023-04-02T18:34:32.979Z,4.47
2023-04-02T18:37:18.236Z,4.07
2023-04-02T18:40:33.337Z,3.88
2023-04-02T18:43:12.579Z,4.55
2023-04-02T18:46:05.810Z,5.40
2023-04-02T18:48:56.984Z,4.60
2023-04-02T18:51:27.161Z,4.65
2023-04-02T18:54:02.849Z,4.45
2023-04-02T18:56:31.675Z,4.32
2023-04-02T18:59:34.392Z,5.13
2023-04-02T19:02:21.385Z,4.80
2023-04-02T19:05:26.395Z,4.53
2023-04-02T19:08:19.240Z,5.18
2023-04-02T19:10:52.093Z,4.47
2023-04-02T19:13:20.444Z,4.78
2023-04-02T19:15:58.678Z,4.50
2023-04-02T19:19:03.116Z,5.60
2023-04-02T19:21:49.055Z,4.95
2023-04-02T19:24:39.988Z,5.43
2023-04-02T19:27:38.186Z,5.68
2023-04-02T19:30:26.807Z,5.13
2023-04-02T19:33:14.046Z,6.25
2023-04-02T19:35:50.548Z,5.88
2023-04-02T19:38:29.561Z,6.20
2023-04-02T19:41:28.072Z,6.53
2023-04-02T19:43:55.796Z,6.40
2023-04-02T19:46:24.371Z,6.07
2023-04-02T19:49:16.970Z,5.80
2023-04-02T19:51:44.329Z,6.13
2023-04-02T19:54:12.725Z,6.80
2023-04-02T19:56:40.886Z,6.80
2023-04-02T19:59:17.695Z,6.82
2023-04-02T20:01:46.741Z,7.63
2023-04-02T20:04:14.524Z,7.78
2023-04-02T20:06:41.713Z,7.68
2023-04-02T20:09:08.862Z,7.35
2023-04-02T20:11:37.602Z,8.98
2023-04-02T20:14:05.461Z,9.32
2023-04-02T20:16:33.041Z,8.88
2023-04-02T20:19:00.598Z,10.40
2023-04-02T20:21:27.625Z,10.90
2023-04-02T20:23:55.434Z,9.98
2023-04-02T20:26:22.768Z,10.02
2023-04-02T20:28:49.863Z,10.32
2023-04-02T20:31:18.923Z,9.13
2023-04-02T20:33:46.638Z,9.23
2023-04-02T20:36:17.834Z,10.50
2023-04-02T20:38:45.909Z,9.85
2023-04-02T20:41:15.642Z,9.48
2023-04-02T20:43:42.809Z,9.25
2023-04-02T20:46:12.635Z,9.57
2023-04-02T20:48:40.495Z,9.85
2023-04-02T20:51:09.039Z,10.15
2023-04-02T20:53:37.816Z,9.45
2023-04-02T20:56:13.744Z,11.70
2023-04-02T20:58:41.775Z,10.25
2023-04-02T21:01:23.445Z,10.38
2023-04-02T21:03:58.093Z,10.43
2023-04-02T21:06:26.952Z,11.45
2023-04-02T21:08:54.159Z,10.32
2023-04-02T21:11:24.127Z,11.35
2023-04-02T21:13:51.762Z,11.00
2023-04-02T21:16:22.275Z,10.43
2023-04-02T21:18:51.560Z,10.45
2023-04-02T21:21:19.483Z,10.50
2023-04-02T21:23:46.724Z,9.57
2023-04-02T21:26:16.424Z,9.05
2023-04-02T21:28:44.900Z,10.00
2023-04-02T21:31:14.939Z,10.20
2023-04-02T21:33:47.648Z,9.75
2023-04-02T21:36:16.204Z,10.18
2023-04-02T21:38:48.418Z,10.05
2023-04-02T21:41:18.512Z,9.23
2023-04-02T21:43:48.603Z,9.48
2023-04-02T21:46:36.993Z,10.35
2023-04-02T21:49:04.741Z,9.23
2023-04-02T21:51:35.924Z,9.43
2023-04-02T21:54:03.377Z,9.10
2023-04-02T21:56:32.985Z,9.57
2023-04-02T21:59:01.999Z,9.52
2023-04-02T22:01:34.423Z,8.88
2023-04-02T22:04:03.479Z,8.90
2023-04-02T22:06:32.792Z,8.60
2023-04-02T22:09:02.019Z,8.73
2023-04-02T22:11:32.131Z,8.98
2023-04-02T22:13:59.777Z,8.50
2023-04-02T22:16:28.951Z,8.30
2023-04-02T22:18:58.294Z,10.27
2023-04-02T22:21:26.044Z,8.77
2023-04-02T22:23:53.274Z,8.80
2023-04-02T22:26:22.899Z,8.77
2023-04-02T22:28:52.609Z,8.05
2023-04-02T22:31:23.014Z,8.15
2023-04-02T22:33:51.395Z,8.10
2023-04-02T22:36:19.298Z,7.75
2023-04-02T22:38:46.656Z,7.88
2023-04-02T22:41:16.536Z,8.10
2023-04-02T22:43:45.644Z,7.00
2023-04-02T22:46:15.333Z,8.00
2023-04-02T22:48:43.476Z,7.97
2023-04-02T22:51:13.095Z,8.23
2023-04-02T22:53:40.957Z,7.07
2023-04-02T22:56:14.503Z,8.02
2023-04-02T22:58:42.249Z,7.60
2023-04-02T23:01:13.750Z,7.55
2023-04-02T23:03:40.987Z,7.28
2023-04-02T23:06:11.654Z,7.53
2023-04-02T23:08:38.899Z,8.13
2023-04-02T23:11:12.240Z,7.28
2023-04-02T23:13:40.043Z,7.53
2023-04-02T23:16:10.601Z,7.85
2023-04-02T23:18:39.257Z,7.00
2023-04-02T23:21:06.886Z,7.55
2023-04-02T23:23:34.875Z,6.90
2023-04-02T23:26:08.627Z,6.80
2023-04-02T23:28:36.956Z,6.68
2023-04-02T23:31:06.868Z,7.05
2023-04-02T23:33:34.930Z,7.07
2023-04-02T23:36:07.565Z,6.68
2023-04-02T23:38:34.630Z,6.72
2023-04-02T23:41:01.604Z,6.80
2023-04-02T23:43:28.600Z,6.35
2023-04-02T23:45:55.900Z,6.75
2023-04-02T23:48:22.834Z,7.05
2023-04-02T23:50:49.752Z,7.18
2023-04-02T23:53:16.936Z,5.85
2023-04-02T23:55:43.867Z,6.47
2023-04-02T23:58:10.943Z,6.63
